sensor_id;sensor_type;location;lat;lon;timestamp;temperature;humidity
62573;DHT22;48626;51.678;5.806;2023-07-30T00:01:39;16.40;99.90
62573;DHT22;48626;51.678;5.806;2023-07-30T00:04:05;16.40;99.90
62573;DHT22;48626;51.678;5.806;2023-07-30T00:06:30;16.40;99.90
62573;DHT22;48626;51.678;5.806;2023-07-30T00:08:56;16.30;99.90
62573;DHT22;48626;51.678;5.806;2023-07-30T00:11:22;16.30;99.90
62573;DHT22;48626;51.678;5.806;2023-07-30T00:13:48;16.30;99.90
62573;DHT22;48626;51.678;5.806;2023-07-30T00:16:13;16.30;99.90
62573;DHT22;48626;51.678;5.806;2023-07-30T00:18:39;16.30;99.90
62573;DHT22;48626;51.678;5.806;2023-07-30T00:21:08;16.30;99.90
62573;DHT22;48626;51.678;5.806;2023-07-30T00:23:33;16.30;99.90
62573;DHT22;48626;51.678;5.806;2023-07-30T00:25:59;16.20;99.90
62573;DHT22;48626;51.678;5.806;2023-07-30T00:28:25;16.20;99.90
62573;DHT22;48626;51.678;5.806;2023-07-30T00:30:50;16.10;99.90
62573;DHT22;48626;51.678;5.806;2023-07-30T00:33:16;16.20;99.90
62573;DHT22;48626;51.678;5.806;2023-07-30T00:35:41;16.10;99.90
62573;DHT22;48626;51.678;5.806;2023-07-30T00:38:07;16.10;99.90
62573;DHT22;48626;51.678;5.806;2023-07-30T00:40:33;16.10;99.90
62573;DHT22;48626;51.678;5.806;2023-07-30T00:42:58;16.00;99.90
62573;DHT22;48626;51.678;5.806;2023-07-30T00:45:24;16.00;99.90
62573;DHT22;48626;51.678;5.806;2023-07-30T00:47:50;16.00;99.90
62573;DHT22;48626;51.678;5.806;2023-07-30T00:50:17;16.00;99.90
62573;DHT22;48626;51.678;5.806;2023-07-30T00:52:43;15.90;99.90
62573;DHT22;48626;51.678;5.806;2023-07-30T00:55:09;15.90;99.90
62573;DHT22;48626;51.678;5.806;2023-07-30T00:57:36;15.90;99.90
62573;DHT22;48626;51.678;5.806;2023-07-30T01:00:02;15.90;99.90
62573;DHT22;48626;51.678;5.806;2023-07-30T01:02:31;15.80;99.90
62573;DHT22;48626;51.678;5.806;2023-07-30T01:04:58;15.80;99.90
62573;DHT22;48626;51.678;5.806;2023-07-30T01:07:25;15.80;99.90
62573;DHT22;48626;51.678;5.806;2023-07-30T01:09:51;15.80;99.90
62573;DHT22;48626;51.678;5.806;2023-07-30T01:12:17;15.70;99.90
62573;DHT22;48626;51.678;5.806;2023-07-30T01:14:45;15.80;99.90
62573;DHT22;48626;51.678;5.806;2023-07-30T01:17:12;15.70;99.90
62573;DHT22;48626;51.678;5.806;2023-07-30T01:19:38;15.80;99.90
62573;DHT22;48626;51.678;5.806;2023-07-30T01:22:03;15.70;99.90
62573;DHT22;48626;51.678;5.806;2023-07-30T01:24:29;15.70;99.90
62573;DHT22;48626;51.678;5.806;2023-07-30T01:26:59;15.70;99.90
62573;DHT22;48626;51.678;5.806;2023-07-30T01:29:42;15.70;99.90
62573;DHT22;48626;51.678;5.806;2023-07-30T01:32:11;15.70;99.90
62573;DHT22;48626;51.678;5.806;2023-07-30T01:34:37;15.70;99.90
62573;DHT22;48626;51.678;5.806;2023-07-30T01:37:10;15.70;99.90
62573;DHT22;48626;51.678;5.806;2023-07-30T01:39:38;15.70;99.90
62573;DHT22;48626;51.678;5.806;2023-07-30T01:42:05;15.70;99.90
62573;DHT22;48626;51.678;5.806;2023-07-30T01:44:30;15.70;99.90
62573;DHT22;48626;51.678;5.806;2023-07-30T01:46:56;15.60;99.90
62573;DHT22;48626;51.678;5.806;2023-07-30T01:49:22;15.60;99.90
62573;DHT22;48626;51.678;5.806;2023-07-30T01:51:48;15.60;99.90
62573;DHT22;48626;51.678;5.806;2023-07-30T01:54:14;15.60;99.90
62573;DHT22;48626;51.678;5.806;2023-07-30T01:56:39;15.60;99.90
62573;DHT22;48626;51.678;5.806;2023-07-30T01:59:05;15.50;99.90
62573;DHT22;48626;51.678;5.806;2023-07-30T02:01:30;15.50;99.90
62573;DHT22;48626;51.678;5.806;2023-07-30T02:03:56;15.50;99.90
62573;DHT22;48626;51.678;5.806;2023-07-30T02:06:22;15.50;99.90
62573;DHT22;48626;51.678;5.806;2023-07-30T02:08:47;15.50;99.90
62573;DHT22;48626;51.678;5.806;2023-07-30T02:11:13;15.50;99.90
62573;DHT22;48626;51.678;5.806;2023-07-30T02:13:39;15.50;99.90
62573;DHT22;48626;51.678;5.806;2023-07-30T02:16:04;15.50;99.90
62573;DHT22;48626;51.678;5.806;2023-07-30T02:18:30;15.50;99.90
62573;DHT22;48626;51.678;5.806;2023-07-30T02:20:56;15.40;99.90
62573;DHT22;48626;51.678;5.806;2023-07-30T02:23:21;15.40;99.90
62573;DHT22;48626;51.678;5.806;2023-07-30T02:25:47;15.40;99.90
62573;DHT22;48626;51.678;5.806;2023-07-30T02:28:12;15.40;99.90
62573;DHT22;48626;51.678;5.806;2023-07-30T02:30:38;15.40;99.90
62573;DHT22;48626;51.678;5.806;2023-07-30T02:33:04;15.40;99.90
62573;DHT22;48626;51.678;5.806;2023-07-30T02:35:29;15.40;99.90
62573;DHT22;48626;51.678;5.806;2023-07-30T02:37:55;15.40;99.90
62573;DHT22;48626;51.678;5.806;2023-07-30T02:40:21;15.40;99.90
62573;DHT22;48626;51.678;5.806;2023-07-30T02:42:46;15.40;99.90
62573;DHT22;48626;51.678;5.806;2023-07-30T02:45:12;15.40;99.90
62573;DHT22;48626;51.678;5.806;2023-07-30T02:47:38;15.50;99.90
62573;DHT22;48626;51.678;5.806;2023-07-30T02:50:04;15.50;99.90
62573;DHT22;48626;51.678;5.806;2023-07-30T02:52:31;15.50;99.90
62573;DHT22;48626;51.678;5.806;2023-07-30T02:54:56;15.60;99.90
62573;DHT22;48626;51.678;5.806;2023-07-30T02:57:22;15.60;99.90
62573;DHT22;48626;51.678;5.806;2023-07-30T02:59:48;15.60;99.90
62573;DHT22;48626;51.678;5.806;2023-07-30T03:02:13;15.70;99.90
62573;DHT22;48626;51.678;5.806;2023-07-30T03:04:39;15.70;99.90
62573;DHT22;48626;51.678;5.806;2023-07-30T03:07:05;15.70;99.90
62573;DHT22;48626;51.678;5.806;2023-07-30T03:09:30;15.70;99.90
62573;DHT22;48626;51.678;5.806;2023-07-30T03:11:56;15.70;99.90
62573;DHT22;48626;51.678;5.806;2023-07-30T03:14:22;15.70;99.90
62573;DHT22;48626;51.678;5.806;2023-07-30T03:16:48;15.80;99.90
62573;DHT22;48626;51.678;5.806;2023-07-30T03:19:14;15.80;99.90
62573;DHT22;48626;51.678;5.806;2023-07-30T03:21:40;15.80;99.90
62573;DHT22;48626;51.678;5.806;2023-07-30T03:24:06;15.90;99.90
62573;DHT22;48626;51.678;5.806;2023-07-30T03:26:31;15.90;99.90
62573;DHT22;48626;51.678;5.806;2023-07-30T03:28:57;15.90;99.90
62573;DHT22;48626;51.678;5.806;2023-07-30T03:31:23;16.00;99.90
62573;DHT22;48626;51.678;5.806;2023-07-30T03:33:48;16.00;99.90
62573;DHT22;48626;51.678;5.806;2023-07-30T03:36:14;16.10;99.90
62573;DHT22;48626;51.678;5.806;2023-07-30T03:38:41;16.00;99.90
62573;DHT22;48626;51.678;5.806;2023-07-30T03:41:07;16.00;99.90
62573;DHT22;48626;51.678;5.806;2023-07-30T03:43:35;16.10;99.90
62573;DHT22;48626;51.678;5.806;2023-07-30T03:46:01;16.10;99.90
62573;DHT22;48626;51.678;5.806;2023-07-30T03:48:27;16.10;99.90
62573;DHT22;48626;51.678;5.806;2023-07-30T03:50:54;16.10;99.90
62573;DHT22;48626;51.678;5.806;2023-07-30T03:53:19;16.10;99.90
62573;DHT22;48626;51.678;5.806;2023-07-30T03:55:45;16.10;99.90
62573;DHT22;48626;51.678;5.806;2023-07-30T03:58:11;16.10;99.90
62573;DHT22;48626;51.678;5.806;2023-07-30T04:00:37;16.20;99.90
62573;DHT22;48626;51.678;5.806;2023-07-30T04:03:02;16.20;99.90
62573;DHT22;48626;51.678;5.806;2023-07-30T04:05:29;16.20;99.90
62573;DHT22;48626;51.678;5.806;2023-07-30T04:07:55;16.20;99.90
62573;DHT22;48626;51.678;5.806;2023-07-30T04:10:21;16.20;99.90
62573;DHT22;48626;51.678;5.806;2023-07-30T04:12:46;16.30;99.90
62573;DHT22;48626;51.678;5.806;2023-07-30T04:15:12;16.30;99.90
62573;DHT22;48626;51.678;5.806;2023-07-30T04:17:38;16.30;99.90
62573;DHT22;48626;51.678;5.806;2023-07-30T04:20:04;16.30;99.90
62573;DHT22;48626;51.678;5.806;2023-07-30T04:22:30;16.30;99.90
62573;DHT22;48626;51.678;5.806;2023-07-30T04:24:56;16.30;99.90
62573;DHT22;48626;51.678;5.806;2023-07-30T04:27:22;16.30;99.90
62573;DHT22;48626;51.678;5.806;2023-07-30T04:29:47;16.40;99.90
62573;DHT22;48626;51.678;5.806;2023-07-30T04:32:13;16.40;99.90
62573;DHT22;48626;51.678;5.806;2023-07-30T04:34:39;16.40;99.90
62573;DHT22;48626;51.678;5.806;2023-07-30T04:37:06;16.40;99.90
62573;DHT22;48626;51.678;5.806;2023-07-30T04:39:35;16.50;99.90
62573;DHT22;48626;51.678;5.806;2023-07-30T04:42:01;16.40;99.90
62573;DHT22;48626;51.678;5.806;2023-07-30T04:44:27;16.50;99.90
62573;DHT22;48626;51.678;5.806;2023-07-30T04:46:53;16.50;99.90
62573;DHT22;48626;51.678;5.806;2023-07-30T04:49:18;16.50;99.90
62573;DHT22;48626;51.678;5.806;2023-07-30T04:51:44;16.60;99.90
62573;DHT22;48626;51.678;5.806;2023-07-30T04:54:09;16.60;99.90
62573;DHT22;48626;51.678;5.806;2023-07-30T04:56:35;16.60;99.90
62573;DHT22;48626;51.678;5.806;2023-07-30T04:59:01;16.60;99.90
62573;DHT22;48626;51.678;5.806;2023-07-30T05:01:27;16.60;99.90
62573;DHT22;48626;51.678;5.806;2023-07-30T05:03:53;16.70;99.90
62573;DHT22;48626;51.678;5.806;2023-07-30T05:06:18;16.70;99.90
62573;DHT22;48626;51.678;5.806;2023-07-30T05:08:44;16.80;99.90
62573;DHT22;48626;51.678;5.806;2023-07-30T05:11:10;16.80;99.90
62573;DHT22;48626;51.678;5.806;2023-07-30T05:13:35;16.80;99.90
62573;DHT22;48626;51.678;5.806;2023-07-30T05:16:01;16.80;99.90
62573;DHT22;48626;51.678;5.806;2023-07-30T05:18:27;16.80;99.90
62573;DHT22;48626;51.678;5.806;2023-07-30T05:20:53;16.90;99.90
62573;DHT22;48626;51.678;5.806;2023-07-30T05:23:19;17.00;99.90
62573;DHT22;48626;51.678;5.806;2023-07-30T05:25:45;17.00;99.90
62573;DHT22;48626;51.678;5.806;2023-07-30T05:28:11;17.10;99.90
62573;DHT22;48626;51.678;5.806;2023-07-30T05:30:37;17.10;99.90
62573;DHT22;48626;51.678;5.806;2023-07-30T05:33:02;17.10;99.90
62573;DHT22;48626;51.678;5.806;2023-07-30T05:35:28;17.10;99.90
62573;DHT22;48626;51.678;5.806;2023-07-30T05:37:54;17.10;99.90
62573;DHT22;48626;51.678;5.806;2023-07-30T05:40:20;17.10;99.90
62573;DHT22;48626;51.678;5.806;2023-07-30T05:42:45;17.20;99.90
62573;DHT22;48626;51.678;5.806;2023-07-30T05:45:12;17.10;99.90
62573;DHT22;48626;51.678;5.806;2023-07-30T05:47:37;17.20;99.90
62573;DHT22;48626;51.678;5.806;2023-07-30T05:50:03;17.20;99.90
62573;DHT22;48626;51.678;5.806;2023-07-30T05:52:29;17.30;99.90
62573;DHT22;48626;51.678;5.806;2023-07-30T05:54:55;17.30;99.90
62573;DHT22;48626;51.678;5.806;2023-07-30T05:57:20;17.30;99.90
62573;DHT22;48626;51.678;5.806;2023-07-30T05:59:46;17.30;99.90
62573;DHT22;48626;51.678;5.806;2023-07-30T06:02:12;17.30;99.90
62573;DHT22;48626;51.678;5.806;2023-07-30T06:04:38;17.40;99.90
62573;DHT22;48626;51.678;5.806;2023-07-30T06:07:03;17.30;99.90
62573;DHT22;48626;51.678;5.806;2023-07-30T06:09:29;17.40;99.90
62573;DHT22;48626;51.678;5.806;2023-07-30T06:11:56;17.40;99.90
62573;DHT22;48626;51.678;5.806;2023-07-30T06:14:23;17.40;99.90
62573;DHT22;48626;51.678;5.806;2023-07-30T06:16:48;17.50;99.90
62573;DHT22;48626;51.678;5.806;2023-07-30T06:19:14;17.50;99.90
62573;DHT22;48626;51.678;5.806;2023-07-30T06:21:40;17.50;99.90
62573;DHT22;48626;51.678;5.806;2023-07-30T06:24:05;17.60;99.90
62573;DHT22;48626;51.678;5.806;2023-07-30T06:26:31;17.60;99.90
62573;DHT22;48626;51.678;5.806;2023-07-30T06:28:57;17.70;99.90
62573;DHT22;48626;51.678;5.806;2023-07-30T06:31:22;17.70;99.90
62573;DHT22;48626;51.678;5.806;2023-07-30T06:33:48;17.70;99.90
62573;DHT22;48626;51.678;5.806;2023-07-30T06:36:14;17.70;99.90
62573;DHT22;48626;51.678;5.806;2023-07-30T06:38:39;17.70;99.90
62573;DHT22;48626;51.678;5.806;2023-07-30T06:41:05;17.80;99.90
62573;DHT22;48626;51.678;5.806;2023-07-30T06:43:30;17.80;99.90
62573;DHT22;48626;51.678;5.806;2023-07-30T06:45:56;17.80;99.90
62573;DHT22;48626;51.678;5.806;2023-07-30T06:48:22;17.80;99.90
62573;DHT22;48626;51.678;5.806;2023-07-30T06:50:47;17.90;99.90
62573;DHT22;48626;51.678;5.806;2023-07-30T06:53:13;17.90;99.90
62573;DHT22;48626;51.678;5.806;2023-07-30T06:55:39;18.00;99.90
62573;DHT22;48626;51.678;5.806;2023-07-30T06:58:04;18.00;99.90
62573;DHT22;48626;51.678;5.806;2023-07-30T07:00:30;18.10;99.90
62573;DHT22;48626;51.678;5.806;2023-07-30T07:02:56;18.10;99.90
62573;DHT22;48626;51.678;5.806;2023-07-30T07:05:22;18.10;99.90
62573;DHT22;48626;51.678;5.806;2023-07-30T07:07:48;18.20;99.90
62573;DHT22;48626;51.678;5.806;2023-07-30T07:10:13;18.20;99.90
62573;DHT22;48626;51.678;5.806;2023-07-30T07:12:40;18.30;99.90
62573;DHT22;48626;51.678;5.806;2023-07-30T07:15:06;18.30;99.90
62573;DHT22;48626;51.678;5.806;2023-07-30T07:17:32;18.40;99.90
62573;DHT22;48626;51.678;5.806;2023-07-30T07:19:58;18.40;99.90
62573;DHT22;48626;51.678;5.806;2023-07-30T07:22:24;18.50;99.90
62573;DHT22;48626;51.678;5.806;2023-07-30T07:24:51;18.50;99.90
62573;DHT22;48626;51.678;5.806;2023-07-30T07:27:20;18.50;99.90
62573;DHT22;48626;51.678;5.806;2023-07-30T07:29:46;18.50;99.90
62573;DHT22;48626;51.678;5.806;2023-07-30T07:32:11;18.70;99.90
62573;DHT22;48626;51.678;5.806;2023-07-30T07:34:37;18.70;99.90
62573;DHT22;48626;51.678;5.806;2023-07-30T07:37:03;18.80;99.90
62573;DHT22;48626;51.678;5.806;2023-07-30T07:39:28;18.90;99.90
62573;DHT22;48626;51.678;5.806;2023-07-30T07:41:55;19.10;99.90
62573;DHT22;48626;51.678;5.806;2023-07-30T07:44:21;19.10;99.90
62573;DHT22;48626;51.678;5.806;2023-07-30T07:46:47;19.20;99.90
62573;DHT22;48626;51.678;5.806;2023-07-30T07:49:13;19.20;99.90
62573;DHT22;48626;51.678;5.806;2023-07-30T07:51:39;19.30;99.90
62573;DHT22;48626;51.678;5.806;2023-07-30T07:54:04;19.30;99.90
62573;DHT22;48626;51.678;5.806;2023-07-30T07:56:31;19.40;99.90
62573;DHT22;48626;51.678;5.806;2023-07-30T07:58:57;19.50;99.90
62573;DHT22;48626;51.678;5.806;2023-07-30T08:01:23;19.60;99.90
62573;DHT22;48626;51.678;5.806;2023-07-30T08:03:48;19.70;99.90
62573;DHT22;48626;51.678;5.806;2023-07-30T08:06:14;19.70;99.90
62573;DHT22;48626;51.678;5.806;2023-07-30T08:08:39;19.80;99.90
62573;DHT22;48626;51.678;5.806;2023-07-30T08:11:06;19.80;99.90
62573;DHT22;48626;51.678;5.806;2023-07-30T08:13:33;19.90;99.90
62573;DHT22;48626;51.678;5.806;2023-07-30T08:15:58;20.00;99.90
62573;DHT22;48626;51.678;5.806;2023-07-30T08:18:24;20.00;99.90
62573;DHT22;48626;51.678;5.806;2023-07-30T08:20:50;19.90;99.90
62573;DHT22;48626;51.678;5.806;2023-07-30T08:23:16;19.90;99.90
62573;DHT22;48626;51.678;5.806;2023-07-30T08:25:41;19.90;99.90
62573;DHT22;48626;51.678;5.806;2023-07-30T08:28:07;19.90;99.90
62573;DHT22;48626;51.678;5.806;2023-07-30T08:30:33;20.00;99.90
62573;DHT22;48626;51.678;5.806;2023-07-30T08:32:58;20.10;99.90
62573;DHT22;48626;51.678;5.806;2023-07-30T08:35:24;20.10;99.90
62573;DHT22;48626;51.678;5.806;2023-07-30T08:37:49;20.10;99.90
62573;DHT22;48626;51.678;5.806;2023-07-30T08:40:15;20.10;99.90
62573;DHT22;48626;51.678;5.806;2023-07-30T08:42:41;20.00;99.90
62573;DHT22;48626;51.678;5.806;2023-07-30T08:45:07;19.90;99.90
62573;DHT22;48626;51.678;5.806;2023-07-30T08:47:37;19.80;99.90
62573;DHT22;48626;51.678;5.806;2023-07-30T08:50:03;19.70;99.90
62573;DHT22;48626;51.678;5.806;2023-07-30T08:52:29;19.80;99.90
62573;DHT22;48626;51.678;5.806;2023-07-30T08:54:57;19.90;99.90
62573;DHT22;48626;51.678;5.806;2023-07-30T08:57:26;20.10;99.90
62573;DHT22;48626;51.678;5.806;2023-07-30T09:00:15;20.10;99.90
62573;DHT22;48626;51.678;5.806;2023-07-30T09:02:52;20.10;99.90
62573;DHT22;48626;51.678;5.806;2023-07-30T09:05:20;20.00;99.90
62573;DHT22;48626;51.678;5.806;2023-07-30T09:07:46;19.90;99.90
62573;DHT22;48626;51.678;5.806;2023-07-30T09:10:12;19.80;99.90
62573;DHT22;48626;51.678;5.806;2023-07-30T09:12:39;19.80;99.90
62573;DHT22;48626;51.678;5.806;2023-07-30T09:15:06;19.80;99.90
62573;DHT22;48626;51.678;5.806;2023-07-30T09:17:32;19.80;99.90
62573;DHT22;48626;51.678;5.806;2023-07-30T09:20:02;19.90;99.90
62573;DHT22;48626;51.678;5.806;2023-07-30T09:22:31;19.90;99.90
62573;DHT22;48626;51.678;5.806;2023-07-30T09:25:01;20.00;99.90
62573;DHT22;48626;51.678;5.806;2023-07-30T09:27:28;20.10;99.90
62573;DHT22;48626;51.678;5.806;2023-07-30T09:29:55;20.10;99.90
62573;DHT22;48626;51.678;5.806;2023-07-30T09:32:29;20.20;99.90
62573;DHT22;48626;51.678;5.806;2023-07-30T09:34:55;20.20;99.90
62573;DHT22;48626;51.678;5.806;2023-07-30T09:37:21;20.30;99.90
62573;DHT22;48626;51.678;5.806;2023-07-30T09:39:49;20.30;99.90
62573;DHT22;48626;51.678;5.806;2023-07-30T09:42:15;20.40;99.90
62573;DHT22;48626;51.678;5.806;2023-07-30T09:44:41;20.60;99.90
62573;DHT22;48626;51.678;5.806;2023-07-30T09:47:10;20.90;99.90
62573;DHT22;48626;51.678;5.806;2023-07-30T09:49:39;21.10;99.90
62573;DHT22;48626;51.678;5.806;2023-07-30T09:52:05;21.20;99.90
62573;DHT22;48626;51.678;5.806;2023-07-30T09:54:33;21.40;99.90
62573;DHT22;48626;51.678;5.806;2023-07-30T09:56:58;21.60;99.90
62573;DHT22;48626;51.678;5.806;2023-07-30T09:59:24;21.80;99.90
62573;DHT22;48626;51.678;5.806;2023-07-30T10:01:50;21.90;99.90
62573;DHT22;48626;51.678;5.806;2023-07-30T10:04:21;21.90;99.90
62573;DHT22;48626;51.678;5.806;2023-07-30T10:07:04;21.80;99.90
62573;DHT22;48626;51.678;5.806;2023-07-30T10:09:36;21.50;99.90
62573;DHT22;48626;51.678;5.806;2023-07-30T10:12:12;21.20;99.90
62573;DHT22;48626;51.678;5.806;2023-07-30T10:14:40;20.90;99.90
62573;DHT22;48626;51.678;5.806;2023-07-30T10:17:10;20.70;99.90
62573;DHT22;48626;51.678;5.806;2023-07-30T10:19:36;20.50;99.90
62573;DHT22;48626;51.678;5.806;2023-07-30T10:24:38;19.80;99.90
62573;DHT22;48626;51.678;5.806;2023-07-30T10:27:08;19.50;99.90
62573;DHT22;48626;51.678;5.806;2023-07-30T10:29:35;19.20;99.90
62573;DHT22;48626;51.678;5.806;2023-07-30T10:32:02;18.90;99.90
62573;DHT22;48626;51.678;5.806;2023-07-30T10:34:44;18.70;99.90
62573;DHT22;48626;51.678;5.806;2023-07-30T10:37:10;18.40;99.90
62573;DHT22;48626;51.678;5.806;2023-07-30T10:39:36;18.00;99.90
62573;DHT22;48626;51.678;5.806;2023-07-30T10:42:02;17.80;99.90
62573;DHT22;48626;51.678;5.806;2023-07-30T10:44:31;17.60;99.90
62573;DHT22;48626;51.678;5.806;2023-07-30T10:46:58;17.40;99.90
62573;DHT22;48626;51.678;5.806;2023-07-30T10:49:24;17.40;99.90
62573;DHT22;48626;51.678;5.806;2023-07-30T10:51:55;17.40;99.90
62573;DHT22;48626;51.678;5.806;2023-07-30T10:54:21;17.40;99.90
62573;DHT22;48626;51.678;5.806;2023-07-30T10:56:47;17.40;99.90
62573;DHT22;48626;51.678;5.806;2023-07-30T10:59:14;17.30;99.90
62573;DHT22;48626;51.678;5.806;2023-07-30T11:01:44;17.20;99.90
62573;DHT22;48626;51.678;5.806;2023-07-30T11:04:11;17.20;99.90
62573;DHT22;48626;51.678;5.806;2023-07-30T11:06:37;17.30;99.90
62573;DHT22;48626;51.678;5.806;2023-07-30T11:09:04;17.80;99.90
62573;DHT22;48626;51.678;5.806;2023-07-30T11:11:30;18.60;99.90
62573;DHT22;48626;51.678;5.806;2023-07-30T11:13:57;19.00;99.90
62573;DHT22;48626;51.678;5.806;2023-07-30T11:16:23;19.30;99.90
62573;DHT22;48626;51.678;5.806;2023-07-30T11:18:49;19.40;99.90
62573;DHT22;48626;51.678;5.806;2023-07-30T11:21:18;19.70;99.90
62573;DHT22;48626;51.678;5.806;2023-07-30T11:23:45;20.10;99.90
62573;DHT22;48626;51.678;5.806;2023-07-30T11:26:16;20.20;99.90
62573;DHT22;48626;51.678;5.806;2023-07-30T11:28:43;20.60;99.90
62573;DHT22;48626;51.678;5.806;2023-07-30T11:31:11;20.90;99.90
62573;DHT22;48626;51.678;5.806;2023-07-30T11:33:43;21.20;99.90
62573;DHT22;48626;51.678;5.806;2023-07-30T11:36:15;21.40;99.90
62573;DHT22;48626;51.678;5.806;2023-07-30T11:38:41;21.60;99.90
62573;DHT22;48626;51.678;5.806;2023-07-30T11:41:09;21.90;99.90
62573;DHT22;48626;51.678;5.806;2023-07-30T11:43:39;22.30;99.90
62573;DHT22;48626;51.678;5.806;2023-07-30T11:46:12;22.70;99.90
62573;DHT22;48626;51.678;5.806;2023-07-30T11:48:40;23.20;99.90
62573;DHT22;48626;51.678;5.806;2023-07-30T11:51:06;23.60;99.90
62573;DHT22;48626;51.678;5.806;2023-07-30T11:53:52;23.80;99.90
62573;DHT22;48626;51.678;5.806;2023-07-30T11:56:24;23.90;99.90
62573;DHT22;48626;51.678;5.806;2023-07-30T11:58:53;24.30;99.90
62573;DHT22;48626;51.678;5.806;2023-07-30T12:01:19;24.60;99.90
62573;DHT22;48626;51.678;5.806;2023-07-30T12:03:45;24.30;99.90
62573;DHT22;48626;51.678;5.806;2023-07-30T12:06:12;24.10;99.90
62573;DHT22;48626;51.678;5.806;2023-07-30T12:08:38;24.00;99.90
62573;DHT22;48626;51.678;5.806;2023-07-30T12:11:08;23.90;99.90
62573;DHT22;48626;51.678;5.806;2023-07-30T12:13:34;23.50;99.90
62573;DHT22;48626;51.678;5.806;2023-07-30T12:16:00;23.60;99.90
62573;DHT22;48626;51.678;5.806;2023-07-30T12:18:26;23.70;99.90
62573;DHT22;48626;51.678;5.806;2023-07-30T12:20:54;23.50;99.90
62573;DHT22;48626;51.678;5.806;2023-07-30T12:23:20;24.10;99.90
62573;DHT22;48626;51.678;5.806;2023-07-30T12:25:46;24.60;99.90
62573;DHT22;48626;51.678;5.806;2023-07-30T12:28:12;25.40;99.90
62573;DHT22;48626;51.678;5.806;2023-07-30T12:30:39;26.00;99.90
62573;DHT22;48626;51.678;5.806;2023-07-30T12:33:05;25.90;99.90
62573;DHT22;48626;51.678;5.806;2023-07-30T12:35:32;25.30;99.90
62573;DHT22;48626;51.678;5.806;2023-07-30T12:37:58;24.70;99.90
62573;DHT22;48626;51.678;5.806;2023-07-30T12:40:24;24.10;99.90
62573;DHT22;48626;51.678;5.806;2023-07-30T12:42:49;23.70;99.90
62573;DHT22;48626;51.678;5.806;2023-07-30T12:45:15;23.30;99.90
62573;DHT22;48626;51.678;5.806;2023-07-30T12:47:41;23.10;99.90
62573;DHT22;48626;51.678;5.806;2023-07-30T12:50:07;23.30;99.90
62573;DHT22;48626;51.678;5.806;2023-07-30T12:52:34;23.70;99.90
62573;DHT22;48626;51.678;5.806;2023-07-30T12:55:01;23.60;99.90
62573;DHT22;48626;51.678;5.806;2023-07-30T12:57:26;23.30;99.90
62573;DHT22;48626;51.678;5.806;2023-07-30T12:59:52;23.10;99.90
62573;DHT22;48626;51.678;5.806;2023-07-30T13:02:18;23.20;99.90
62573;DHT22;48626;51.678;5.806;2023-07-30T13:04:44;23.50;99.90
62573;DHT22;48626;51.678;5.806;2023-07-30T13:07:09;24.40;99.90
62573;DHT22;48626;51.678;5.806;2023-07-30T13:09:35;25.20;99.90
62573;DHT22;48626;51.678;5.806;2023-07-30T13:12:01;25.70;99.90
62573;DHT22;48626;51.678;5.806;2023-07-30T13:14:26;26.40;99.90
62573;DHT22;48626;51.678;5.806;2023-07-30T13:16:52;27.00;99.90
62573;DHT22;48626;51.678;5.806;2023-07-30T13:19:17;27.20;99.90
62573;DHT22;48626;51.678;5.806;2023-07-30T13:21:43;26.50;99.90
62573;DHT22;48626;51.678;5.806;2023-07-30T13:24:09;26.00;99.90
62573;DHT22;48626;51.678;5.806;2023-07-30T13:26:35;26.30;99.90
62573;DHT22;48626;51.678;5.806;2023-07-30T13:29:01;26.20;99.90
62573;DHT22;48626;51.678;5.806;2023-07-30T13:31:27;25.70;99.90
62573;DHT22;48626;51.678;5.806;2023-07-30T13:33:52;25.00;99.90
62573;DHT22;48626;51.678;5.806;2023-07-30T13:36:18;24.60;99.90
62573;DHT22;48626;51.678;5.806;2023-07-30T13:38:44;24.40;99.90
62573;DHT22;48626;51.678;5.806;2023-07-30T13:41:09;25.10;99.90
62573;DHT22;48626;51.678;5.806;2023-07-30T13:43:35;25.80;99.90
62573;DHT22;48626;51.678;5.806;2023-07-30T13:46:01;26.80;99.90
62573;DHT22;48626;51.678;5.806;2023-07-30T13:48:27;27.80;99.90
62573;DHT22;48626;51.678;5.806;2023-07-30T13:50:53;28.20;99.90
62573;DHT22;48626;51.678;5.806;2023-07-30T13:53:19;28.60;99.90
62573;DHT22;48626;51.678;5.806;2023-07-30T13:55:45;28.50;99.90
62573;DHT22;48626;51.678;5.806;2023-07-30T13:58:11;28.60;99.90
62573;DHT22;48626;51.678;5.806;2023-07-30T14:00:39;28.90;99.90
62573;DHT22;48626;51.678;5.806;2023-07-30T14:03:05;28.60;99.90
62573;DHT22;48626;51.678;5.806;2023-07-30T14:05:30;28.70;99.90
62573;DHT22;48626;51.678;5.806;2023-07-30T14:07:56;28.60;99.90
62573;DHT22;48626;51.678;5.806;2023-07-30T14:10:24;28.50;99.90
62573;DHT22;48626;51.678;5.806;2023-07-30T14:12:50;28.50;99.90
62573;DHT22;48626;51.678;5.806;2023-07-30T14:15:16;28.00;99.90
62573;DHT22;48626;51.678;5.806;2023-07-30T14:17:42;27.50;99.90
62573;DHT22;48626;51.678;5.806;2023-07-30T14:20:08;27.20;99.90
62573;DHT22;48626;51.678;5.806;2023-07-30T14:22:34;26.70;99.90
62573;DHT22;48626;51.678;5.806;2023-07-30T14:25:03;26.30;99.90
62573;DHT22;48626;51.678;5.806;2023-07-30T14:27:29;26.70;99.90
62573;DHT22;48626;51.678;5.806;2023-07-30T14:29:55;27.30;99.90
62573;DHT22;48626;51.678;5.806;2023-07-30T14:32:20;28.10;99.90
62573;DHT22;48626;51.678;5.806;2023-07-30T14:34:46;28.70;99.90
62573;DHT22;48626;51.678;5.806;2023-07-30T14:37:12;28.60;99.90
62573;DHT22;48626;51.678;5.806;2023-07-30T14:39:38;28.00;99.90
62573;DHT22;48626;51.678;5.806;2023-07-30T14:42:05;27.30;99.90
62573;DHT22;48626;51.678;5.806;2023-07-30T14:44:31;27.50;99.90
62573;DHT22;48626;51.678;5.806;2023-07-30T14:46:57;27.50;99.90
62573;DHT22;48626;51.678;5.806;2023-07-30T14:49:23;27.10;99.90
62573;DHT22;48626;51.678;5.806;2023-07-30T14:51:49;26.50;99.90
62573;DHT22;48626;51.678;5.806;2023-07-30T14:54:17;25.90;99.90
62573;DHT22;48626;51.678;5.806;2023-07-30T14:56:43;25.50;99.90
62573;DHT22;48626;51.678;5.806;2023-07-30T14:59:09;25.10;99.90
62573;DHT22;48626;51.678;5.806;2023-07-30T15:01:35;25.00;99.90
62573;DHT22;48626;51.678;5.806;2023-07-30T15:04:00;25.00;99.90
62573;DHT22;48626;51.678;5.806;2023-07-30T15:06:26;25.00;99.90
62573;DHT22;48626;51.678;5.806;2023-07-30T15:08:54;25.00;99.90
62573;DHT22;48626;51.678;5.806;2023-07-30T15:11:20;25.10;99.90
62573;DHT22;48626;51.678;5.806;2023-07-30T15:13:46;25.90;99.90
62573;DHT22;48626;51.678;5.806;2023-07-30T15:16:11;26.40;99.90
62573;DHT22;48626;51.678;5.806;2023-07-30T15:18:37;27.30;99.90
62573;DHT22;48626;51.678;5.806;2023-07-30T15:21:03;28.00;99.90
62573;DHT22;48626;51.678;5.806;2023-07-30T15:23:29;28.00;99.90
62573;DHT22;48626;51.678;5.806;2023-07-30T15:25:54;27.60;99.90
62573;DHT22;48626;51.678;5.806;2023-07-30T15:28:20;27.80;99.90